createdAt,value
2023-02-19T07:42:27.985Z,28.12
2023-02-19T07:45:50.107Z,39.38
2023-02-19T07:46:51.743Z,39.38
2023-02-19T07:47:51.950Z,45.00
2023-02-19T07:48:51.355Z,45.00
2023-02-19T07:49:51.338Z,50.62
2023-02-19T07:50:51.382Z,56.25
2023-02-19T07:51:56.051Z,56.25
2023-02-19T07:52:52.270Z,50.62
2023-02-19T07:53:51.173Z,45.00
2023-02-19T07:54:51.153Z,45.00
2023-02-19T07:55:51.053Z,50.62
2023-02-19T07:56:51.063Z,50.62
2023-02-19T07:57:51.173Z,56.25
2023-02-19T07:58:51.174Z,61.88
2023-02-19T07:59:51.126Z,56.25
2023-02-19T08:00:51.090Z,39.38
2023-02-19T08:01:51.051Z,33.75
2023-02-19T08:02:51.265Z,39.38
2023-02-19T08:03:51.016Z,45.00
2023-02-19T08:04:51.026Z,50.62
2023-02-19T08:05:51.023Z,50.62
2023-02-19T08:06:51.129Z,56.25
2023-02-19T08:07:51.016Z,67.50
2023-02-19T08:08:51.105Z,78.75
2023-02-19T08:09:51.205Z,90.00
2023-02-19T08:10:51.102Z,90.00
2023-02-19T08:11:51.166Z,95.62
2023-02-19T08:12:50.995Z,95.62
2023-02-19T08:13:51.113Z,95.62
2023-02-19T08:14:51.063Z,90.00
2023-02-19T08:15:51.173Z,78.75
2023-02-19T08:16:51.372Z,73.12
2023-02-19T08:17:51.113Z,67.50
2023-02-19T08:18:51.026Z,67.50
2023-02-19T08:19:51.088Z,61.88
2023-02-19T08:20:50.998Z,61.88
2023-02-19T08:21:51.009Z,67.50
2023-02-19T08:22:50.925Z,73.12
2023-02-19T08:23:51.329Z,84.38
2023-02-19T08:24:52.043Z,95.62
2023-02-19T08:25:51.033Z,112.50
2023-02-19T08:26:50.972Z,118.12
2023-02-19T08:27:50.949Z,123.75
2023-02-19T08:28:51.061Z,118.12
2023-02-19T08:29:51.101Z,106.88
2023-02-19T08:30:51.120Z,106.88
2023-02-19T08:31:51.018Z,118.12
2023-02-19T08:32:50.954Z,118.12
2023-02-19T08:34:24.171Z,112.50
2023-02-19T08:34:51.074Z,112.50
2023-02-19T08:35:51.736Z,118.12
2023-02-19T08:36:51.036Z,118.12
2023-02-19T08:37:50.856Z,123.75
2023-02-19T08:38:51.009Z,135.00
2023-02-19T08:39:50.837Z,135.00
2023-02-19T08:40:50.883Z,135.00
2023-02-19T08:41:50.901Z,135.00
2023-02-19T08:42:50.834Z,118.12
2023-02-19T08:43:51.847Z,101.25
2023-02-19T08:44:50.745Z,101.25
2023-02-19T08:45:50.816Z,95.62
2023-02-19T08:46:50.989Z,95.62
2023-02-19T08:47:50.762Z,90.00
2023-02-19T08:48:50.746Z,95.62
2023-02-19T08:49:50.766Z,95.62
2023-02-19T08:50:50.764Z,90.00
2023-02-19T08:51:50.805Z,90.00
2023-02-19T08:52:50.755Z,90.00
2023-02-19T08:53:50.788Z,95.62
2023-02-19T08:54:50.734Z,95.62
2023-02-19T08:55:50.906Z,101.25
2023-02-19T08:56:50.678Z,106.88
2023-02-19T08:57:50.846Z,101.25
2023-02-19T08:58:50.724Z,101.25
2023-02-19T08:59:50.597Z,90.00
2023-02-19T09:00:50.663Z,78.75
2023-02-19T09:01:50.609Z,73.12
2023-02-19T09:02:50.785Z,73.12
2023-02-19T09:03:50.723Z,67.50
2023-02-19T09:04:50.654Z,67.50
2023-02-19T09:06:04.647Z,73.12
2023-02-19T09:06:50.645Z,78.75
2023-02-19T09:07:50.611Z,78.75
2023-02-19T09:08:50.580Z,84.38
2023-02-19T09:09:50.586Z,84.38
2023-02-19T09:11:22.708Z,90.00
2023-02-19T09:11:50.946Z,101.25
2023-02-19T09:12:51.100Z,101.25
2023-02-19T09:13:50.851Z,95.62
2023-02-19T09:14:50.617Z,84.38
2023-02-19T09:15:50.638Z,78.75
2023-02-19T09:17:23.842Z,73.12
2023-02-19T09:17:51.081Z,73.12
2023-02-19T09:18:51.172Z,67.50
2023-02-19T09:19:50.943Z,61.88
2023-02-19T09:21:05.086Z,61.88
2023-02-19T09:21:50.513Z,56.25
2023-02-19T09:22:50.785Z,56.25
2023-02-19T09:23:50.568Z,56.25
2023-02-19T09:24:50.503Z,61.88
2023-02-19T09:25:50.484Z,61.88
2023-02-19T09:26:50.592Z,67.50
2023-02-19T09:27:50.569Z,73.12
2023-02-19T09:28:50.504Z,84.38
2023-02-19T09:29:50.560Z,101.25
2023-02-19T09:30:50.547Z,106.88
2023-02-19T09:31:50.536Z,112.50
2023-02-19T09:32:50.468Z,123.75
2023-02-19T09:33:50.500Z,123.75
2023-02-19T09:34:50.530Z,106.88
2023-02-19T09:35:50.455Z,95.62
2023-02-19T09:36:50.466Z,90.00
2023-02-19T09:37:50.508Z,90.00
2023-02-19T09:38:50.400Z,90.00
2023-02-19T09:39:50.442Z,90.00
2023-02-19T09:40:50.409Z,90.00
2023-02-19T09:41:50.449Z,95.62
2023-02-19T09:42:50.369Z,106.88
2023-02-19T09:43:50.454Z,106.88
2023-02-19T09:44:50.396Z,106.88
2023-02-19T09:45:50.444Z,106.88
2023-02-19T09:46:50.361Z,101.25
2023-02-19T09:47:50.349Z,95.62
2023-02-19T09:48:50.326Z,90.00
2023-02-19T09:49:50.365Z,90.00
2023-02-19T09:50:50.329Z,84.38
2023-02-19T09:51:50.717Z,84.38
2023-02-19T09:52:50.280Z,84.38
2023-02-19T09:53:50.315Z,84.38
2023-02-19T09:54:50.291Z,90.00
2023-02-19T09:55:50.270Z,90.00
2023-02-19T09:56:50.339Z,84.38
2023-02-19T09:57:50.353Z,78.75
2023-02-19T09:58:50.196Z,73.12
2023-02-19T09:59:50.293Z,73.12
2023-02-19T10:00:50.134Z,67.50
2023-02-19T10:01:50.149Z,67.50
2023-02-19T10:02:50.245Z,73.12
2023-02-19T10:03:50.150Z,78.75
2023-02-19T10:04:50.210Z,90.00
2023-02-19T10:05:50.105Z,106.88
2023-02-19T10:06:50.190Z,129.38
2023-02-19T10:07:50.206Z,146.25
2023-02-19T10:08:50.079Z,146.25
2023-02-19T10:09:50.037Z,140.62
2023-02-19T10:10:50.051Z,146.25
2023-02-19T10:11:50.066Z,135.00
2023-02-19T10:12:50.066Z,140.62
2023-02-19T10:13:50.076Z,146.25
2023-02-19T10:14:50.013Z,157.50
2023-02-19T10:15:50.187Z,146.25
2023-02-19T10:16:50.008Z,151.88
2023-02-19T10:17:50.118Z,163.12
2023-02-19T10:18:50.130Z,151.88
2023-02-19T10:19:50.106Z,146.25
2023-02-19T10:20:50.096Z,135.00
2023-02-19T10:22:06.289Z,129.38
2023-02-19T10:22:50.001Z,140.62
2023-02-19T10:24:03.483Z,157.50
2023-02-19T10:24:50.985Z,163.12
2023-02-19T10:25:50.375Z,180.00
2023-02-19T10:26:50.060Z,191.25
2023-02-19T10:27:50.260Z,202.50
2023-02-19T10:28:50.021Z,185.62
2023-02-19T10:29:50.283Z,185.62
2023-02-19T10:30:50.150Z,185.62
2023-02-19T10:31:50.198Z,180.00
2023-02-19T10:32:50.016Z,191.25
2023-02-19T10:33:50.021Z,202.50
2023-02-19T10:34:50.101Z,219.38
2023-02-19T10:35:49.968Z,247.50
2023-02-19T10:36:49.989Z,264.38
2023-02-19T10:37:50.001Z,264.38
2023-02-19T10:38:50.010Z,264.38
2023-02-19T10:39:49.922Z,264.38
2023-02-19T10:40:49.960Z,270.00
2023-02-19T10:41:49.896Z,253.12
2023-02-19T10:42:50.082Z,236.25
2023-02-19T10:43:50.053Z,202.50
2023-02-19T10:44:49.967Z,174.38
2023-02-19T10:45:49.968Z,163.12
2023-02-19T10:46:49.988Z,168.75
2023-02-19T10:47:49.868Z,151.88
2023-02-19T10:48:49.968Z,140.62
2023-02-19T10:49:49.944Z,135.00
2023-02-19T10:50:50.026Z,135.00
2023-02-19T10:51:49.835Z,140.62
2023-02-19T10:52:50.925Z,140.62
2023-02-19T10:53:49.874Z,146.25
2023-02-19T10:54:49.852Z,140.62
2023-02-19T10:55:50.695Z,129.38
2023-02-19T10:56:50.130Z,106.88
2023-02-19T10:57:49.848Z,95.62
2023-02-19T10:58:49.752Z,84.38
2023-02-19T10:59:49.718Z,73.12
2023-02-19T11:00:49.970Z,67.50
2023-02-19T11:01:49.863Z,67.50
2023-02-19T11:02:49.942Z,67.50
2023-02-19T11:03:49.973Z,67.50
2023-02-19T11:04:49.768Z,56.25
2023-02-19T11:05:50.211Z,50.62
2023-02-19T11:06:49.775Z,50.62
2023-02-19T11:07:49.799Z,50.62
2023-02-19T11:08:49.789Z,61.88
2023-02-19T11:09:49.814Z,84.38
2023-02-19T11:10:49.836Z,95.62
2023-02-19T11:25:28.994Z,320.62
2023-02-19T11:26:31.060Z,354.38
2023-02-19T11:27:30.877Z,376.88
2023-02-19T11:28:30.571Z,421.88
2023-02-19T11:29:30.235Z,455.62
2023-02-19T11:30:30.654Z,466.88
2023-02-19T11:33:49.914Z,461.25
2023-02-19T11:34:51.828Z,495.00
2023-02-19T11:35:51.668Z,461.25
2023-02-19T11:36:51.339Z,421.88
2023-02-19T11:37:51.438Z,360.00
2023-02-19T11:38:51.155Z,320.62
2023-02-19T11:39:51.259Z,309.38
2023-02-19T11:40:51.688Z,315.00
2023-02-19T11:41:51.366Z,315.00
2023-02-19T11:42:51.519Z,275.62
2023-02-19T11:43:50.903Z,264.38
2023-02-19T11:44:52.213Z,275.62
2023-02-19T11:45:51.222Z,275.62
2023-02-19T11:46:50.916Z,270.00
2023-02-19T11:47:51.088Z,264.38
2023-02-19T11:48:51.004Z,270.00
2023-02-19T11:49:51.463Z,281.25
2023-02-19T11:50:51.305Z,292.50
2023-02-19T11:51:52.756Z,292.50
2023-02-19T11:52:52.379Z,281.25
2023-02-19T11:53:50.892Z,258.75
2023-02-19T11:54:51.116Z,236.25
2023-02-19T11:55:50.870Z,230.62
2023-02-19T11:56:51.233Z,241.88
2023-02-19T11:57:51.693Z,241.88
2023-02-19T11:58:51.180Z,247.50
2023-02-19T11:59:50.988Z,236.25
2023-02-19T12:00:51.221Z,230.62
2023-02-19T12:01:51.211Z,230.62
2023-02-19T12:02:51.282Z,253.12
2023-02-19T12:03:51.077Z,286.88
2023-02-19T12:04:51.061Z,292.50
2023-02-19T12:05:51.036Z,298.12
2023-02-19T12:06:50.863Z,281.25
2023-02-19T12:07:51.089Z,253.12
2023-02-19T12:08:51.487Z,213.75
2023-02-19T12:09:50.957Z,219.38
2023-02-19T12:10:51.182Z,213.75
2023-02-19T12:11:50.776Z,180.00
2023-02-19T12:12:51.242Z,146.25
2023-02-19T12:13:50.856Z,135.00
2023-02-19T12:14:51.090Z,140.62
2023-02-19T12:15:50.872Z,146.25
2023-02-19T12:16:50.556Z,151.88
2023-02-19T12:17:51.646Z,163.12
2023-02-19T12:18:50.516Z,174.38
2023-02-19T12:19:50.918Z,180.00
2023-02-19T12:20:50.901Z,196.88
2023-02-19T12:21:50.775Z,225.00
2023-02-19T12:22:51.042Z,286.88
2023-02-19T12:23:51.104Z,348.75
2023-02-19T12:24:51.405Z,371.25
2023-02-19T12:25:50.741Z,320.62
2023-02-19T12:26:50.867Z,258.75
2023-02-19T12:27:50.640Z,236.25
2023-02-19T12:28:50.983Z,225.00
2023-02-19T12:29:51.219Z,219.38
2023-02-19T12:30:51.171Z,225.00
2023-02-19T12:31:51.246Z,225.00
2023-02-19T12:32:50.964Z,230.62
2023-02-19T12:33:50.785Z,230.62
2023-02-19T12:34:50.691Z,230.62
2023-02-19T12:35:51.467Z,230.62
2023-02-19T12:36:51.031Z,230.62
2023-02-19T12:37:52.189Z,236.25
2023-02-19T12:38:50.961Z,253.12
2023-02-19T12:39:50.998Z,275.62
2023-02-19T12:40:52.010Z,292.50
2023-02-19T12:41:50.752Z,303.75
2023-02-19T12:42:51.237Z,286.88
2023-02-19T12:43:51.875Z,258.75
2023-02-19T12:44:50.386Z,230.62
2023-02-19T12:45:50.854Z,208.12
2023-02-19T12:46:51.241Z,191.25
2023-02-19T12:47:50.949Z,185.62
2023-02-19T12:48:50.859Z,180.00
2023-02-19T12:49:51.072Z,174.38
2023-02-19T12:50:51.135Z,168.75
2023-02-19T12:51:51.317Z,163.12
2023-02-19T12:52:50.688Z,168.75
2023-02-19T12:53:51.075Z,168.75
2023-02-19T12:54:51.162Z,168.75
2023-02-19T12:55:50.956Z,157.50
2023-02-19T12:56:51.006Z,157.50
2023-02-19T12:57:50.906Z,163.12
2023-02-19T12:58:50.993Z,168.75
2023-02-19T12:59:50.980Z,180.00
2023-02-19T13:00:51.121Z,191.25
2023-02-19T13:01:51.761Z,191.25
2023-02-19T13:02:51.500Z,196.88
2023-02-19T13:03:50.697Z,196.88
2023-02-19T13:04:50.431Z,196.88
2023-02-19T13:05:50.801Z,191.25
2023-02-19T13:06:50.693Z,180.00
2023-02-19T13:07:50.709Z,185.62
2023-02-19T13:09:05.908Z,185.62
2023-02-19T13:09:52.764Z,196.88
2023-02-19T13:10:50.927Z,208.12
2023-02-19T13:11:50.891Z,219.38
2023-02-19T13:12:51.042Z,196.88
2023-02-19T13:13:50.846Z,196.88
2023-02-19T13:14:51.001Z,202.50
2023-02-19T13:15:50.637Z,208.12
2023-02-19T13:16:51.023Z,219.38
2023-02-19T13:17:51.950Z,219.38
2023-02-19T13:18:50.812Z,213.75
2023-02-19T13:19:50.732Z,196.88
2023-02-19T13:20:50.320Z,191.25
2023-02-19T13:21:50.517Z,202.50
2023-02-19T13:22:50.670Z,208.12
2023-02-19T13:23:50.506Z,208.12
2023-02-19T13:24:50.705Z,208.12
2023-02-19T13:25:50.273Z,219.38
2023-02-19T13:26:50.448Z,225.00
2023-02-19T13:27:50.624Z,213.75
2023-02-19T13:28:50.716Z,202.50
2023-02-19T13:29:52.169Z,208.12
2023-02-19T13:30:50.821Z,241.88
2023-02-19T13:31:50.426Z,270.00
2023-02-19T13:32:50.637Z,286.88
2023-02-19T13:33:50.678Z,326.25
2023-02-19T13:34:50.650Z,326.25
2023-02-19T13:35:50.652Z,320.62
2023-02-19T13:36:50.451Z,309.38
2023-02-19T13:37:49.930Z,270.00
2023-02-19T13:38:50.664Z,213.75
2023-02-19T13:39:50.657Z,191.25
2023-02-19T13:40:50.646Z,185.62
2023-02-19T13:41:51.905Z,196.88
2023-02-19T13:42:50.627Z,230.62
2023-02-19T13:43:50.685Z,202.50
2023-02-19T13:44:52.060Z,146.25
2023-02-19T13:45:50.689Z,118.12
2023-02-19T13:46:50.633Z,101.25
2023-02-19T13:47:50.670Z,95.62
2023-02-19T13:48:51.748Z,95.62
2023-02-19T13:49:51.662Z,101.25
2023-02-19T13:50:50.742Z,101.25
2023-02-19T13:51:51.951Z,101.25
2023-02-19T13:52:50.358Z,101.25
2023-02-19T13:53:50.628Z,106.88
2023-02-19T13:54:50.601Z,106.88
2023-02-19T13:55:50.497Z,112.50
2023-02-19T13:56:51.614Z,118.12
2023-02-19T13:57:50.812Z,118.12
